Time;durP1;ratioP1;P1;durP2;ratioP2;P2;SDS_P1;SDS_P2;PMS_P1;PMS_P2;Temp;Humidity;BMP_temperature;BMP_pressure;BME280_temperature;BME280_humidity;BME280_pressure;Samples;Min_cycle;Max_cycle;Signal;HPM_P1;HPM_P2
2022/06/28 00:01:01;;;;;;;6.60;6.10;;;17.60;93.20;;;16.77;83.41;98378.88;5033203;28;20460;-69
2022/06/28 00:03:28;;;;;;;7.10;6.60;;;17.60;93.70;;;16.61;81.55;98337.72;5023989;28;20446;-68
2022/06/28 00:05:56;;;;;;;5.70;5.30;;;17.70;92.70;;;17.02;81.37;98374.94;5022059;27;20458;-70
2022/06/28 00:08:23;;;;;;;5.53;5.20;;;17.80;92.80;;;17.07;80.93;98381.31;5028801;27;20461;-69
2022/06/28 00:10:52;;;;;;;5.80;5.40;;;17.80;92.20;;;17.18;80.12;98386.94;5023275;28;20493;-68
2022/06/28 00:13:20;;;;;;;5.57;5.13;;;18.00;91.40;;;17.06;80.05;98376.91;5024040;27;20458;-68
2022/06/28 00:18:32;;;;;;;5.60;5.20;;;18.00;90.50;;;17.08;79.45;98368.50;5025156;28;20460;-68
2022/06/28 00:21:01;;;;;;;5.30;4.90;;;18.00;90.80;;;17.20;78.22;98371.94;5023803;28;23061;-69
2022/06/28 00:23:29;;;;;;;5.13;4.77;;;18.00;90.10;;;17.07;78.68;98372.31;5029867;27;21290;-68
2022/06/28 00:25:58;;;;;;;4.50;4.17;;;18.00;90.20;;;16.87;79.29;98356.41;5023961;28;20526;-68
2022/06/28 00:28:25;;;;;;;4.93;4.53;;;17.90;90.40;;;16.89;79.51;98365.97;5021322;27;20495;-68
2022/06/28 00:30:53;;;;;;;4.87;4.20;;;17.80;90.50;;;16.81;79.67;98364.47;5037945;27;20464;-69
2022/06/28 00:33:20;;;;;;;4.30;4.00;;;17.80;90.70;;;16.79;79.00;98355.72;5022856;27;20551;-69
2022/06/28 00:35:48;;;;;;;5.27;4.73;;;17.80;90.60;;;16.73;80.22;98367.63;5019560;28;20828;-69
2022/06/28 00:38:16;;;;;;;5.40;5.00;;;17.70;90.90;;;16.69;80.50;98370.03;5023334;28;20843;-71
2022/06/28 00:40:49;;;;;;;5.40;5.00;;;17.70;91.00;;;16.64;80.65;98369.94;5024282;27;20461;-68
2022/06/28 00:43:19;;;;;;;4.57;4.27;;;17.60;91.20;;;16.61;80.84;98373.19;5019678;28;20458;-69
2022/06/28 00:45:47;;;;;;;4.70;4.30;;;17.60;91.40;;;16.52;80.58;98352.81;5027405;27;20488;-68
2022/06/28 00:48:17;;;;;;;4.83;4.43;;;17.50;91.20;;;16.48;80.73;98359.84;5030512;28;20489;-68
2022/06/28 00:50:44;;;;;;;4.57;4.27;;;17.50;91.40;;;16.51;81.13;98359.34;5037207;28;20530;-69
2022/06/28 00:53:15;;;;;;;5.53;4.80;;;17.50;91.70;;;16.49;81.39;98366.97;5025208;28;20460;-69
2022/06/28 00:55:43;;;;;;;5.23;4.83;;;17.40;91.60;;;16.40;81.53;98370.06;5020903;27;20453;-69
2022/06/28 00:58:11;;;;;;;4.77;4.47;;;17.40;92.00;;;16.39;82.02;98371.13;5037125;28;21032;-69
2022/06/28 01:00:43;;;;;;;5.50;5.00;;;17.30;92.10;;;16.34;82.31;98371.06;5021948;27;20869;-69
2022/06/28 01:03:10;;;;;;;7.60;4.50;;;17.30;92.50;;;16.34;82.20;98375.66;5024480;27;20454;-70
2022/06/28 01:05:38;;;;;;;5.33;4.93;;;17.30;92.50;;;16.26;83.11;98379.63;5021753;27;20484;-70
2022/06/28 01:08:06;;;;;;;5.27;4.77;;;17.20;92.70;;;16.22;83.51;98387.44;5020327;28;20486;-69
2022/06/28 01:10:35;;;;;;;5.33;4.93;;;17.20;93.20;;;16.15;83.90;98394.97;5024601;27;20458;-70
2022/06/28 01:13:03;;;;;;;5.60;5.20;;;17.10;93.40;;;16.29;83.51;98400.94;5025078;27;20941;-69
2022/06/28 01:15:32;;;;;;;6.00;5.50;;;17.20;93.60;;;16.27;83.49;98403.06;5029805;27;20550;-70
2022/06/28 01:18:03;;;;;;;5.30;4.80;;;17.20;93.40;;;16.17;84.16;98408.34;5031045;28;21077;-69
2022/06/28 01:20:31;;;;;;;4.63;4.33;;;17.10;93.50;;;16.07;84.46;98403.50;5030787;27;20558;-71
2022/06/28 01:23:00;;;;;;;5.70;5.23;;;17.00;94.00;;;16.07;85.46;98420.69;5020883;28;20448;-71
2022/06/28 01:25:28;;;;;;;5.70;5.20;;;16.90;95.00;;;16.00;85.50;98436.38;5028640;28;20485;-72
2022/06/28 01:27:57;;;;;;;5.00;4.70;;;16.90;95.00;;;16.06;85.83;98434.56;5019851;27;20462;-69
2022/06/28 01:30:25;;;;;;;7.27;6.77;;;16.90;95.90;;;16.03;85.99;98435.03;5023806;27;20461;-70
2022/06/28 01:32:53;;;;;;;5.77;5.27;;;16.90;95.50;;;15.92;87.15;98442.19;5018113;27;20880;-69
2022/06/28 01:35:20;;;;;;;6.10;5.60;;;16.80;95.80;;;15.95;86.77;98434.34;5019999;28;20457;-70
2022/06/28 01:37:49;;;;;;;6.80;6.20;;;16.90;96.10;;;15.94;86.88;98434.59;5017180;27;20469;-70
2022/06/28 01:40:18;;;;;;;7.57;5.93;;;16.80;96.20;;;16.03;86.96;98430.44;5020682;27;20495;-71
2022/06/28 01:42:46;;;;;;;5.80;5.40;;;16.90;96.30;;;16.01;86.71;98440.75;5020466;27;20481;-70
2022/06/28 01:45:14;;;;;;;6.10;5.70;;;17.00;96.10;;;16.09;87.38;98437.63;5017263;28;20482;-70
2022/06/28 01:47:44;;;;;;;6.80;6.40;;;16.90;96.60;;;16.06;87.13;98429.94;5016875;27;20515;-71
2022/06/28 01:50:12;;;;;;;6.60;6.00;;;17.00;96.10;;;16.11;86.66;98429.22;5031445;28;20532;-69
2022/06/28 01:52:41;;;;;;;8.07;5.73;;;17.00;96.00;;;15.96;87.13;98416.09;5021640;27;20541;-69
2022/06/28 01:55:09;;;;;;;6.23;5.77;;;17.00;96.00;;;16.03;86.83;98422.25;5030867;27;20458;-69
2022/06/28 01:57:39;;;;;;;6.03;5.63;;;17.00;96.00;;;15.61;87.93;98373.41;5020218;28;20488;-69
2022/06/28 02:00:09;;;;;;;7.40;6.70;;;16.90;96.40;;;15.84;88.05;98430.53;5022094;28;20577;-70
2022/06/28 02:02:37;;;;;;;6.27;5.80;;;16.80;96.70;;;15.89;87.80;98429.84;5017799;27;20882;-68
2022/06/28 02:05:05;;;;;;;6.10;5.60;;;16.80;97.00;;;15.86;88.04;98436.59;5029568;28;20919;-70
2022/06/28 02:07:32;;;;;;;6.83;6.03;;;16.80;97.10;;;15.81;88.51;98441.09;5022193;27;20459;-71
2022/06/28 02:10:00;;;;;;;5.53;5.13;;;16.80;97.30;;;15.77;89.22;98440.75;5021930;28;20457;-71
2022/06/28 02:12:28;;;;;;;6.90;6.40;;;16.80;97.60;;;15.93;88.81;98443.84;5020356;28;21246;-69
2022/06/28 02:14:57;;;;;;;7.10;6.60;;;16.80;97.90;;;15.97;88.11;98447.72;5019061;27;20547;-70
2022/06/28 02:17:25;;;;;;;6.70;6.20;;;16.90;96.90;;;15.96;87.91;98449.63;5020642;27;20460;-71
2022/06/28 02:19:54;;;;;;;6.00;5.57;;;16.90;96.80;;;16.18;87.27;98448.16;5020718;28;20514;-69
2022/06/28 02:22:21;;;;;;;6.90;6.30;;;17.00;96.70;;;15.93;88.48;98441.94;5029672;28;20457;-70
2022/06/28 02:24:51;;;;;;;6.57;5.97;;;16.90;96.60;;;15.88;88.74;98432.81;5018515;28;20478;-71
2022/06/28 02:27:18;;;;;;;6.30;5.80;;;16.90;97.00;;;15.80;89.42;98428.56;5020724;28;20457;-69
2022/06/28 02:29:47;;;;;;;6.67;6.07;;;16.80;97.70;;;15.84;89.25;98427.81;5019071;28;20989;-69
2022/06/28 02:32:15;;;;;;;7.37;6.67;;;16.80;98.40;;;15.84;89.18;98422.38;5032124;28;20461;-69
2022/06/28 02:40:24;;;;;;;7.77;7.17;;;16.70;98.70;;;15.58;91.04;98424.56;5028820;27;20486;-69
2022/06/28 02:42:53;;;;;;;10.43;7.37;;;16.60;99.40;;;15.58;90.92;98423.72;5015769;28;20466;-70
2022/06/28 02:45:22;;;;;;;8.07;7.37;;;16.60;99.90;;;15.55;91.41;98425.03;5035509;27;20848;-70
2022/06/28 02:47:51;;;;;;;7.63;7.00;;;16.50;99.90;;;15.46;92.25;98426.44;5018771;28;20526;-71
2022/06/28 02:50:19;;;;;;;6.97;6.43;;;16.40;99.90;;;15.55;92.03;98422.31;5023507;28;20465;-70
2022/06/28 02:52:47;;;;;;;7.80;7.10;;;16.40;99.90;;;15.44;92.32;98417.69;5022931;27;20460;-69
2022/06/28 02:55:14;;;;;;;9.40;7.50;;;16.40;99.90;;;15.39;92.71;98414.84;5020624;27;20461;-71
2022/06/28 02:57:42;;;;;;;9.23;8.37;;;16.40;99.90;;;15.37;92.83;98417.81;5018826;28;20465;-68
2022/06/28 03:00:13;;;;;;;7.40;6.90;;;16.40;99.90;;;15.38;92.73;98413.19;5021920;28;20457;-69
2022/06/28 03:02:42;;;;;;;7.67;6.97;;;16.40;99.90;;;15.46;91.96;98415.56;5031102;28;20454;-69
2022/06/28 03:05:14;;;;;;;7.37;6.87;;;16.40;99.90;;;15.27;93.27;98407.53;5015580;27;20532;-69
2022/06/28 03:07:43;;;;;;;7.90;7.30;;;16.40;99.90;;;15.30;93.38;98417.94;5018520;28;20917;-69
2022/06/28 03:10:12;;;;;;;7.80;7.20;;;16.30;99.90;;;15.29;93.68;98427.16;5023791;28;20464;-68
2022/06/28 03:12:40;;;;;;;7.50;7.00;;;16.30;99.90;;;15.22;94.04;98422.91;5011796;28;20459;-70
2022/06/28 03:15:09;;;;;;;8.43;7.73;;;16.20;99.90;;;15.24;94.41;98429.78;5020151;28;20465;-69
2022/06/28 03:17:37;;;;;;;8.77;7.97;;;16.20;99.90;;;15.19;93.61;98415.22;5019909;28;20475;-70
2022/06/28 03:20:05;;;;;;;8.60;7.87;;;16.20;99.90;;;15.28;94.17;98414.63;5022261;28;20473;-69
2022/06/28 03:22:34;;;;;;;8.93;7.60;;;16.20;99.90;;;15.33;93.75;98415.81;5023213;28;20449;-70
2022/06/28 03:25:01;;;;;;;8.60;7.80;;;16.30;99.90;;;15.34;93.97;98417.44;5021745;28;20550;-69
2022/06/28 03:27:29;;;;;;;8.33;7.53;;;16.30;99.90;;;15.40;93.69;98416.53;5036012;28;20681;-71
2022/06/28 03:29:56;;;;;;;8.57;7.77;;;16.30;99.90;;;15.46;93.22;98431.06;5029339;27;20460;-68
2022/06/28 03:32:24;;;;;;;8.50;7.20;;;16.40;99.90;;;15.69;91.90;98422.03;5022422;27;20453;-70
2022/06/28 03:34:51;;;;;;;7.50;6.80;;;16.40;99.90;;;15.76;91.07;98427.34;5019672;28;20518;-69
2022/06/28 03:37:19;;;;;;;8.07;7.37;;;16.60;99.90;;;15.90;90.64;98430.69;5028361;27;21178;-69
2022/06/28 03:39:48;;;;;;;6.07;5.57;;;16.70;99.90;;;16.00;89.07;98409.13;5037337;28;20478;-69
2022/06/28 03:42:17;;;;;;;5.93;5.53;;;16.80;99.10;;;16.19;88.37;98417.13;5041379;27;20464;-68
2022/06/28 03:44:44;;;;;;;7.50;5.80;;;17.00;97.80;;;16.21;88.62;98436.78;5026895;27;20529;-69
2022/06/28 03:47:12;;;;;;;7.03;6.43;;;17.00;97.70;;;16.31;87.86;98430.69;5027378;27;21100;-69
2022/06/28 03:49:39;;;;;;;6.30;5.90;;;17.10;96.90;;;16.37;87.92;98429.69;5024293;27;20464;-69
2022/06/28 03:52:07;;;;;;;6.97;6.33;;;17.20;96.80;;;16.33;87.62;98418.47;5026456;27;20464;-70
2022/06/28 03:54:34;;;;;;;6.30;5.70;;;17.20;96.40;;;16.52;86.98;98426.44;5042029;27;20552;-70
2022/06/28 03:57:04;;;;;;;6.40;5.80;;;17.30;96.00;;;16.55;85.94;98417.78;5026900;27;20479;-70
2022/06/28 03:59:33;;;;;;;5.77;5.37;;;17.40;95.10;;;16.61;85.59;98425.00;5024784;27;20871;-70
2022/06/28 04:02:00;;;;;;;5.93;5.20;;;17.50;94.90;;;16.64;85.64;98429.13;5043323;27;20456;-70
2022/06/28 04:04:28;;;;;;;6.97;5.70;;;17.50;94.80;;;16.57;86.10;98440.19;5023799;27;20458;-70
2022/06/28 04:06:55;;;;;;;6.13;5.63;;;17.50;94.90;;;16.62;85.64;98448.47;5024956;27;20488;-70
2022/06/28 04:09:23;;;;;;;7.30;5.57;;;17.50;94.60;;;17.36;82.06;98445.88;5032337;27;21029;-68
2022/06/28 04:11:50;;;;;;;5.23;4.83;;;18.10;92.90;;;18.11;78.23;98451.88;5027013;27;20446;-69
2022/06/28 04:14:19;;;;;;;5.60;5.20;;;18.90;90.30;;;18.89;73.84;98449.16;5031656;27;20461;-70
2022/06/28 04:16:46;;;;;;;5.57;5.10;;;19.70;86.50;;;19.08;72.47;98441.44;5026942;27;20448;-67
2022/06/28 04:19:13;;;;;;;11.50;5.30;;;20.00;85.20;;;19.10;71.88;98455.69;5025499;27;20480;-69
2022/06/28 04:21:41;;;;;;;5.80;5.10;;;20.10;84.40;;;19.41;70.60;98453.19;5028576;28;21020;-70
2022/06/28 04:24:09;;;;;;;5.77;5.37;;;20.40;83.70;;;20.05;68.16;98454.13;5027921;28;20448;-70
2022/06/28 04:26:36;;;;;;;5.70;5.20;;;21.00;82.50;;;20.44;66.76;98454.84;5026027;27;20494;-69
2022/06/28 04:29:04;;;;;;;7.77;5.43;;;21.30;81.50;;;19.85;67.64;98454.00;5029832;27;20519;-70
2022/06/28 04:31:33;;;;;;;5.90;5.40;;;21.10;80.90;;;20.21;67.39;98462.41;5049859;27;20457;-67
2022/06/28 04:34:00;;;;;;;5.30;4.90;;;21.10;81.70;;;20.93;64.46;98462.63;5037838;27;20458;-67
2022/06/28 04:36:27;;;;;;;5.60;5.10;;;21.80;80.00;;;21.13;63.10;98469.25;5023187;27;20827;-67
2022/06/28 04:38:55;;;;;;;5.10;4.70;;;22.40;78.20;;;21.31;62.00;98470.63;5024620;27;20556;-67
2022/06/28 04:41:24;;;;;;;4.97;4.60;;;22.70;76.80;;;21.44;62.06;98462.94;5025099;28;20462;-68
2022/06/28 04:43:53;;;;;;;5.10;4.60;;;22.70;76.70;;;21.57;61.38;98469.78;5019807;28;20483;-68
2022/06/28 04:46:21;;;;;;;8.40;6.00;;;23.00;75.70;;;21.92;60.28;98457.09;5026503;28;20509;-68
2022/06/28 04:48:49;;;;;;;6.30;5.70;;;23.50;74.70;;;21.27;61.81;98454.97;5024325;28;20921;-68
2022/06/28 04:51:17;;;;;;;5.07;4.70;;;23.40;73.90;;;21.75;59.53;98460.97;5015213;28;20964;-68
2022/06/28 04:53:47;;;;;;;5.20;4.70;;;23.20;73.30;;;21.25;61.24;98463.50;5028056;28;20466;-69
2022/06/28 04:56:16;;;;;;;5.00;4.50;;;22.70;73.70;;;21.36;61.33;98459.63;5035854;28;20462;-69
2022/06/28 04:58:43;;;;;;;5.27;4.87;;;22.60;74.30;;;21.45;60.70;98456.31;5026605;27;20973;-68
2022/06/28 05:01:11;;;;;;;5.67;5.20;;;22.60;73.90;;;21.05;61.70;98448.63;5022448;27;20473;-68
2022/06/28 05:03:39;;;;;;;5.40;5.00;;;22.30;74.70;;;21.41;60.98;98452.50;5022561;27;21615;-69
2022/06/28 05:06:07;;;;;;;5.17;4.87;;;22.60;74.10;;;21.61;60.21;98454.38;5022415;28;20481;-68
2022/06/28 05:08:35;;;;;;;5.00;4.60;;;22.80;73.60;;;22.02;59.08;98448.00;5021299;28;20473;-68
2022/06/28 05:11:03;;;;;;;5.10;4.60;;;23.30;73.00;;;22.14;58.15;98461.41;5021428;27;20464;-68
2022/06/28 05:13:30;;;;;;;5.13;4.73;;;23.50;71.90;;;21.65;59.36;98460.97;5017926;27;20466;-68
2022/06/28 05:15:57;;;;;;;5.20;4.90;;;23.00;72.40;;;21.36;60.66;98461.56;5018437;28;20464;-69
2022/06/28 05:18:24;;;;;;;5.67;5.17;;;22.70;73.10;;;20.88;61.55;98470.03;5021514;27;20533;-68
2022/06/28 05:20:53;;;;;;;5.80;5.30;;;22.50;73.10;;;20.08;64.57;98464.56;5026667;27;20470;-68
2022/06/28 05:23:21;;;;;;;5.17;4.77;;;21.60;74.50;;;18.89;68.69;98466.41;5025053;28;20465;-68
2022/06/28 05:25:49;;;;;;;6.03;5.43;;;20.80;76.30;;;18.12;71.91;98471.84;5032257;28;21026;-68
2022/06/28 05:28:16;;;;;;;5.93;5.33;;;19.80;79.10;;;18.63;71.21;98468.06;5022830;28;20515;-68
2022/06/28 05:30:44;;;;;;;6.27;4.97;;;19.60;81.20;;;20.19;65.38;98465.44;5018417;28;22970;-69
2022/06/28 05:33:11;;;;;;;6.07;5.53;;;20.90;79.30;;;21.22;61.84;98464.84;5021594;27;20459;-67
2022/06/28 05:35:38;;;;;;;5.63;5.13;;;22.20;76.30;;;22.29;58.38;98446.75;5021195;27;20455;-68
2022/06/28 05:38:06;;;;;;;6.00;5.40;;;23.30;74.00;;;22.21;58.26;98461.94;5023130;27;20465;-68
2022/06/28 05:40:34;;;;;;;9.47;5.17;;;23.60;72.50;;;22.90;56.58;98453.88;5021674;28;20455;-70
2022/06/28 05:43:02;;;;;;;4.83;4.43;;;24.10;71.60;;;22.70;56.74;98456.78;5023164;28;20897;-68
2022/06/28 05:45:29;;;;;;;6.33;5.27;;;24.10;70.60;;;22.83;56.22;98467.16;5019226;27;20484;-69
2022/06/28 05:47:56;;;;;;;5.00;4.60;;;24.30;69.80;;;22.82;55.96;98471.00;5019684;27;21162;-67
2022/06/28 05:50:24;;;;;;;9.73;5.00;;;24.10;69.70;;;22.50;56.27;98470.38;5020718;28;20457;-67
2022/06/28 05:52:51;;;;;;;5.00;4.60;;;23.90;69.40;;;22.80;56.17;98478.72;5020801;27;20465;-68
2022/06/28 05:55:19;;;;;;;4.50;4.17;;;24.00;69.50;;;22.89;54.81;98474.28;5024177;28;20466;-68
2022/06/28 05:57:47;;;;;;;4.30;3.97;;;24.40;68.20;;;22.18;56.65;98477.09;5025100;27;20515;-68
2022/06/28 06:00:16;;;;;;;7.20;4.50;;;24.00;68.20;;;22.62;55.63;98477.47;5019605;28;20870;-69
2022/06/28 06:02:44;;;;;;;4.73;4.37;;;23.90;68.40;;;22.17;56.42;98455.34;5021638;27;20455;-68
2022/06/28 06:05:12;;;;;;;4.47;4.17;;;24.20;67.80;;;23.36;54.13;98476.69;5032952;27;20458;-69
2022/06/28 06:07:39;;;;;;;5.07;3.70;;;24.70;67.60;;;23.90;51.99;98469.28;5017449;28;20520;-69
2022/06/28 06:10:08;;;;;;;4.13;3.83;;;25.20;66.10;;;23.40;52.84;98469.50;5021695;28;20569;-69
2022/06/28 06:12:35;;;;;;;4.30;4.00;;;25.10;65.50;;;22.39;54.97;98432.16;5011040;27;20443;-71
2022/06/28 06:15:04;;;;;;;4.37;4.00;;;24.80;65.30;;;22.98;54.14;98474.47;5018136;27;20564;-69
2022/06/28 06:17:32;;;;;;;4.43;4.13;;;24.50;66.30;;;21.90;56.29;98484.88;5017122;27;20458;-68
2022/06/28 06:19:59;;;;;;;5.43;4.00;;;23.80;66.10;;;21.35;57.01;98437.94;5019043;28;20470;-70
2022/06/28 06:22:27;;;;;;;4.13;3.50;;;23.30;66.70;;;22.18;56.08;98471.59;5020266;27;20466;-68
2022/06/28 06:24:54;;;;;;;5.90;4.37;;;23.30;67.20;;;22.51;55.45;98473.94;5017353;28;20462;-68
2022/06/28 06:27:21;;;;;;;4.60;3.63;;;23.70;67.20;;;22.56;54.93;98481.34;5022795;28;20484;-68
2022/06/28 06:29:49;;;;;;;5.67;3.47;;;23.90;66.60;;;22.76;54.45;98466.63;5033366;28;20465;-68
2022/06/28 06:32:17;;;;;;;4.70;4.40;;;24.20;66.10;;;21.24;58.41;98472.84;5027656;28;20825;-68
2022/06/28 06:34:45;;;;;;;3.90;3.50;;;23.50;66.30;;;20.78;59.93;98454.34;5020021;28;20454;-69
2022/06/28 06:37:13;;;;;;;6.27;5.30;;;22.80;67.50;;;19.92;63.38;98454.59;5036954;28;21224;-69
2022/06/28 06:39:40;;;;;;;4.17;3.80;;;21.70;70.10;;;19.38;65.20;98451.78;5026244;28;20958;-69
2022/06/28 06:42:09;;;;;;;4.37;3.97;;;20.90;71.90;;;19.08;65.69;98442.22;5029979;28;20692;-68
2022/06/28 06:44:36;;;;;;;5.10;3.93;;;20.40;73.10;;;18.87;66.73;98441.19;5019700;28;20457;-68
2022/06/28 06:47:04;;;;;;;4.60;4.20;;;20.00;74.70;;;18.71;67.35;98447.59;5017590;28;20520;-68
2022/06/28 06:49:35;;;;;;;4.60;4.00;;;19.80;75.70;;;18.50;67.84;98444.66;5018831;28;20458;-68
2022/06/28 06:52:02;;;;;;;6.33;3.67;;;19.60;76.20;;;18.39;67.56;98419.94;5025482;28;20458;-67
2022/06/28 06:54:30;;;;;;;4.00;3.70;;;19.50;76.90;;;18.58;66.79;98446.13;5022620;28;20487;-68
2022/06/28 06:56:57;;;;;;;4.07;3.23;;;19.60;76.50;;;18.69;66.27;98454.16;5021896;28;20519;-69
2022/06/28 06:59:24;;;;;;;3.47;3.17;;;19.70;76.50;;;18.63;66.12;98455.22;5018411;28;21062;-69
2022/06/28 07:01:52;;;;;;;5.27;3.50;;;19.60;76.00;;;18.61;67.44;98443.72;5029496;28;20552;-82
2022/06/28 07:04:19;;;;;;;3.73;3.43;;;19.60;77.10;;;18.69;67.13;98451.44;5031648;28;20462;-71
2022/06/28 07:06:47;;;;;;;3.73;3.53;;;19.60;77.20;;;18.90;66.27;98451.66;5015912;28;20652;-69
2022/06/28 07:09:15;;;;;;;4.40;3.43;;;19.80;77.10;;;19.02;65.91;98450.66;5016911;28;20863;-77
2022/06/28 07:11:42;;;;;;;3.63;3.27;;;19.90;76.80;;;19.03;64.44;98447.69;5026238;28;20447;-69
2022/06/28 07:14:12;;;;;;;3.40;3.10;;;19.90;75.60;;;19.15;63.35;98450.22;5023922;28;20468;-68
2022/06/28 07:16:39;;;;;;;3.87;2.70;;;20.10;74.80;;;19.25;63.04;98436.63;5019544;27;20461;-68
2022/06/28 07:19:07;;;;;;;3.13;2.93;;;20.20;74.50;;;19.20;62.23;98442.06;5024323;28;20464;-69
2022/06/28 07:21:34;;;;;;;3.03;2.50;;;20.20;73.50;;;19.46;61.45;98450.47;5021563;28;20512;-69
2022/06/28 07:24:03;;;;;;;3.00;2.80;;;20.30;73.20;;;19.41;62.67;98455.91;5018619;28;20470;-68
2022/06/28 07:26:31;;;;;;;3.33;2.90;;;20.40;73.90;;;19.45;61.33;98458.97;5019377;28;20526;-68
2022/06/28 07:28:58;;;;;;;7.00;3.03;;;20.30;72.90;;;19.52;59.77;98452.16;5020485;28;20463;-69
2022/06/28 07:31:27;;;;;;;1.80;1.70;;;20.40;71.40;;;19.38;58.85;98412.63;5033991;27;20977;-68
2022/06/28 07:33:54;;;;;;;2.47;2.30;;;20.50;70.60;;;19.82;59.12;98467.16;5020279;28;20474;-68
2022/06/28 07:36:21;;;;;;;2.23;2.03;;;20.70;70.90;;;20.00;58.02;98467.81;5026246;28;20536;-70
2022/06/28 07:38:48;;;;;;;4.60;3.00;;;20.90;70.10;;;19.95;59.42;98468.63;5036675;28;20445;-69
2022/06/28 07:41:17;;;;;;;2.17;2.07;;;20.90;70.90;;;20.12;57.12;98455.81;5053712;28;20505;-69
2022/06/28 07:43:45;;;;;;;2.60;2.40;;;20.90;69.00;;;20.19;57.21;98454.47;5036107;28;20516;-70
2022/06/28 07:46:12;;;;;;;3.03;2.40;;;21.00;69.10;;;19.95;57.98;98459.56;5017210;28;20481;-68
2022/06/28 07:48:40;;;;;;;2.50;2.30;;;20.90;69.80;;;20.09;57.71;98444.28;5019330;28;20453;-69
2022/06/28 07:53:52;;;;;;;3.47;3.13;;;20.90;69.70;;;19.97;58.77;98435.47;5018714;28;20480;-68
2022/06/28 07:56:20;;;;;;;6.00;2.90;;;20.80;70.00;;;20.26;58.10;98437.78;5022161;28;20460;-69
2022/06/28 07:58:47;;;;;;;3.00;2.80;;;21.00;70.20;;;20.41;57.79;98433.44;5014201;28;20471;-70
2022/06/28 08:01:16;;;;;;;2.90;2.70;;;21.20;69.70;;;20.46;57.83;98430.69;5025964;28;20545;-70
2022/06/28 08:03:43;;;;;;;3.27;3.00;;;21.30;69.70;;;20.76;57.11;98435.41;5035056;28;20482;-69
2022/06/28 08:06:10;;;;;;;2.93;2.40;;;21.50;69.60;;;21.04;55.87;98436.00;5022623;28;20481;-69
2022/06/28 08:08:38;;;;;;;5.03;2.37;;;21.80;68.70;;;21.15;55.25;98436.00;5027545;28;20470;-68
2022/06/28 08:11:05;;;;;;;2.33;2.10;;;22.00;68.00;;;21.41;54.16;98444.25;5011861;28;21445;-69
2022/06/28 08:13:34;;;;;;;2.90;2.13;;;22.20;67.40;;;21.43;54.31;98453.84;5021786;28;20515;-69
2022/06/28 08:16:01;;;;;;;3.60;2.40;;;22.30;67.10;;;21.59;53.56;98451.06;5017149;28;20464;-69
2022/06/28 08:18:29;;;;;;;3.57;2.30;;;22.30;66.60;;;21.93;52.84;98445.00;5018926;27;20453;-69
2022/06/28 08:20:56;;;;;;;2.50;2.20;;;22.70;66.10;;;22.12;52.27;98449.88;5019039;27;20542;-69
2022/06/28 08:23:24;;;;;;;4.83;2.30;;;22.90;65.70;;;22.25;51.77;98463.03;5021413;27;20472;-69
2022/06/28 08:25:51;;;;;;;2.50;2.30;;;23.10;65.10;;;22.34;51.14;98458.56;5019609;28;20476;-69
2022/06/28 08:28:19;;;;;;;2.10;2.00;;;23.30;64.20;;;22.64;50.77;98465.06;5021290;27;20485;-68
2022/06/28 08:30:47;;;;;;;2.27;2.10;;;23.40;64.30;;;22.76;50.89;98463.88;5018075;28;20468;-68
2022/06/28 08:33:15;;;;;;;2.30;2.10;;;23.60;64.40;;;22.53;52.17;98462.66;5020089;28;20547;-69
2022/06/28 08:35:42;;;;;;;2.30;2.20;;;23.50;65.00;;;22.12;51.98;98449.88;5021944;27;20457;-68
2022/06/28 08:38:09;;;;;;;2.83;2.30;;;23.30;64.20;;;21.93;52.81;98445.81;5036944;27;20466;-68
2022/06/28 08:40:37;;;;;;;2.17;2.07;;;22.90;64.50;;;;;;5020601;27;20499;-69
2022/06/28 08:43:07;;;;;;;2.50;2.40;;;22.70;64.90;;;22.03;52.59;98422.94;5025209;27;20968;-68
2022/06/28 08:45:36;;;;;;;2.57;2.47;;;22.80;64.70;;;22.12;52.16;98425.13;5019855;27;20457;-68
2022/06/28 08:48:14;;;;;;;2.30;2.10;;;22.90;64.40;;;21.88;51.88;98410.06;5036899;27;20498;-69
2022/06/28 08:50:47;;;;;;;3.03;2.37;;;22.80;63.70;;;21.99;52.03;98421.84;5020816;27;20473;-69
2022/06/28 08:53:15;;;;;;;2.03;1.93;;;22.80;64.10;;;22.15;52.37;98424.53;5022516;28;20541;-69
2022/06/28 08:55:43;;;;;;;2.70;2.30;;;22.80;64.30;;;22.55;51.04;98416.38;5033872;27;20458;-68
2022/06/28 08:58:10;;;;;;;3.00;2.20;;;23.20;64.00;;;22.53;50.95;98419.44;5034347;27;20459;-68
2022/06/28 09:00:37;;;;;;;2.20;2.10;;;23.30;63.40;;;22.39;51.26;98410.13;5022398;28;20478;-68
2022/06/28 09:03:06;;;;;;;1.90;1.80;;;23.30;63.30;;;21.87;52.11;98413.94;5023508;27;20470;-69
2022/06/28 09:05:34;;;;;;;2.60;2.40;;;22.90;63.30;;;21.87;52.69;98407.59;5020205;27;21113;-68
2022/06/28 09:08:02;;;;;;;2.50;2.27;;;22.70;64.00;;;21.92;52.97;98411.16;5021017;27;21010;-67
2022/06/28 09:10:29;;;;;;;3.07;2.50;;;22.80;64.20;;;22.11;52.91;98406.97;5019312;27;20461;-68
2022/06/28 09:13:08;;;;;;;2.57;2.37;;;22.90;64.70;;;22.17;52.66;98405.81;5037156;27;20479;-69
2022/06/28 09:15:54;;;;;;;2.73;2.47;;;22.90;64.30;;;22.37;51.70;98399.38;5015245;27;20466;-68
2022/06/28 09:18:25;;;;;;;2.60;2.50;;;23.10;63.80;;;22.25;51.36;98402.50;5024350;27;20989;-68
2022/06/28 09:20:55;;;;;;;2.33;2.23;;;23.20;63.10;;;22.34;52.18;98402.72;5021477;28;20519;-67
2022/06/28 09:23:27;;;;;;;2.53;2.33;;;23.20;63.90;;;22.36;51.68;98404.06;5024302;28;20467;-67
2022/06/28 09:25:57;;;;;;;3.10;2.13;;;23.20;63.40;;;22.63;51.57;98405.59;5021643;27;20515;-69
2022/06/28 09:28:31;;;;;;;2.57;1.83;;;23.40;63.90;;;22.93;50.79;98400.97;5022176;28;20482;-68
2022/06/28 09:31:21;;;;;;;2.60;2.23;;;23.60;63.50;;;22.83;50.40;98403.81;5015053;28;20475;-69
2022/06/28 09:34:03;;;;;;;2.43;2.33;;;23.70;62.90;;;22.24;51.98;98416.53;5036980;27;20949;-68
2022/06/28 09:36:33;;;;;;;2.37;2.27;;;23.30;62.90;;;22.23;51.56;98415.72;5023416;28;20512;-67
2022/06/28 09:39:12;;;;;;;5.00;1.90;;;23.10;63.00;;;22.23;51.56;98404.72;5023812;28;20485;-68
2022/06/28 09:41:44;;;;;;;2.30;2.10;;;23.10;62.70;;;22.39;51.17;98399.13;5039536;27;20479;-82
2022/06/28 09:44:15;;;;;;;2.63;2.43;;;23.10;62.90;;;22.48;50.61;98387.25;5024919;28;20225;-83
2022/06/28 09:46:42;;;;;;;2.63;2.20;;;23.30;62.70;;;22.83;48.86;98392.78;5034988;27;21067;-79
2022/06/28 09:49:14;;;;;;;2.20;2.00;;;23.50;61.60;;;22.82;47.95;98391.13;5022097;28;20553;-73
2022/06/28 09:51:42;;;;;;;1.80;1.70;;;23.60;60.30;;;23.06;47.51;98368.34;5024407;27;20482;-73
2022/06/28 09:54:11;;;;;;;2.67;2.20;;;23.80;60.50;;;23.05;48.96;98374.97;5025486;28;20459;-71
2022/06/28 09:56:41;;;;;;;2.70;2.50;;;23.70;60.90;;;23.36;47.95;98363.69;5023186;28;20451;-72
2022/06/28 09:59:11;;;;;;;2.40;2.20;;;24.00;60.80;;;23.59;47.12;98366.75;5021522;27;20459;-72
2022/06/28 10:01:38;;;;;;;2.37;2.13;;;24.30;60.30;;;23.69;46.65;98372.13;5014487;28;20455;-75
2022/06/28 10:04:07;;;;;;;3.63;2.57;;;24.40;59.90;;;23.58;46.90;98370.59;5013476;28;20988;-75
2022/06/28 10:06:36;;;;;;;2.30;2.20;;;24.40;59.80;;;23.54;47.25;98353.00;5029492;27;20468;-74
2022/06/28 10:09:06;;;;;;;2.50;2.30;;;24.30;59.70;;;23.70;46.46;98348.16;5021406;28;20461;-74
2022/06/28 10:17:22;;;;;;;1.70;1.60;;;25.10;58.10;;;24.51;43.19;98350.13;5017738;28;20460;-73
2022/06/28 10:19:50;;;;;;;7.73;1.67;;;25.10;56.50;;;24.52;41.22;98350.94;5018019;28;20561;-73
2022/06/28 10:22:19;;;;;;;1.83;1.73;;;25.20;55.30;;;24.64;40.66;98340.25;5032908;27;20469;-71
2022/06/28 10:24:53;;;;;;;2.03;1.10;;;25.40;54.40;;;24.48;40.29;98342.41;5017738;27;20504;-73
2022/06/28 10:27:22;;;;;;;1.30;1.20;;;25.40;53.70;;;24.55;40.21;98339.28;5021829;27;20486;-73
2022/06/28 10:30:26;;;;;;;1.37;1.27;;;25.30;53.90;;;25.07;39.27;98358.63;5028989;27;20462;-73
2022/06/28 10:32:56;;;;;;;2.13;1.20;;;25.70;53.60;;;25.33;38.01;98352.63;5029976;27;20455;-73
2022/06/28 10:36:12;;;;;;;1.20;1.10;;;25.90;52.60;;;25.80;36.88;98360.06;5020817;28;20468;-73
2022/06/28 10:39:28;;;;;;;0.90;0.90;;;26.40;52.00;;;25.02;37.91;98354.03;5020842;27;20452;-73
2022/06/28 10:42:08;;;;;;;2.03;1.50;;;26.00;50.90;;;25.15;38.60;98344.13;5039285;27;20463;-75
2022/06/28 10:44:47;;;;;;;1.47;1.30;;;25.90;51.90;;;25.51;37.61;98350.13;5013991;28;20470;-72